sensor_id;sensor_type;location;lat;lon;timestamp;P1;durP1;ratioP1;P2;durP2;ratioP2
22026;SDS011;11177;50.966;10.070;2023-03-25T00:00:11;2.08;;;0.60;;
22026;SDS011;11177;50.966;10.070;2023-03-25T00:02:45;3.63;;;0.75;;
22026;SDS011;11177;50.966;10.070;2023-03-25T00:05:17;2.20;;;0.77;;
22026;SDS011;11177;50.966;10.070;2023-03-25T00:07:46;4.40;;;0.80;;
22026;SDS011;11177;50.966;10.070;2023-03-25T00:10:15;4.45;;;0.90;;
22026;SDS011;11177;50.966;10.070;2023-03-25T00:12:42;2.97;;;0.60;;
22026;SDS011;11177;50.966;10.070;2023-03-25T00:15:10;3.13;;;0.82;;
22026;SDS011;11177;50.966;10.070;2023-03-25T00:17:38;3.40;;;0.70;;
22026;SDS011;11177;50.966;10.070;2023-03-25T00:20:06;2.25;;;0.80;;
22026;SDS011;11177;50.966;10.070;2023-03-25T00:22:36;2.58;;;0.70;;
22026;SDS011;11177;50.966;10.070;2023-03-25T00:25:07;2.28;;;0.90;;
22026;SDS011;11177;50.966;10.070;2023-03-25T00:27:43;3.63;;;1.13;;
22026;SDS011;11177;50.966;10.070;2023-03-25T00:30:13;4.00;;;1.40;;
22026;SDS011;11177;50.966;10.070;2023-03-25T00:32:41;2.55;;;1.10;;
22026;SDS011;11177;50.966;10.070;2023-03-25T00:35:11;2.15;;;0.80;;
22026;SDS011;11177;50.966;10.070;2023-03-25T00:37:39;2.75;;;0.70;;
22026;SDS011;11177;50.966;10.070;2023-03-25T00:40:07;2.78;;;0.70;;
22026;SDS011;11177;50.966;10.070;2023-03-25T00:42:35;2.95;;;0.90;;
22026;SDS011;11177;50.966;10.070;2023-03-25T00:45:02;1.85;;;0.60;;
22026;SDS011;11177;50.966;10.070;2023-03-25T00:47:29;1.55;;;0.70;;
22026;SDS011;11177;50.966;10.070;2023-03-25T00:49:56;3.30;;;0.50;;
22026;SDS011;11177;50.966;10.070;2023-03-25T00:52:23;3.05;;;0.50;;
22026;SDS011;11177;50.966;10.070;2023-03-25T00:54:51;2.10;;;0.50;;
22026;SDS011;11177;50.966;10.070;2023-03-25T00:57:19;1.73;;;0.40;;
22026;SDS011;11177;50.966;10.070;2023-03-25T00:59:46;3.58;;;0.50;;
22026;SDS011;11177;50.966;10.070;2023-03-25T01:02:15;2.85;;;0.70;;
22026;SDS011;11177;50.966;10.070;2023-03-25T01:04:44;1.67;;;0.70;;
22026;SDS011;11177;50.966;10.070;2023-03-25T01:07:12;3.38;;;0.68;;
22026;SDS011;11177;50.966;10.070;2023-03-25T01:09:41;2.30;;;0.77;;
22026;SDS011;11177;50.966;10.070;2023-03-25T01:12:12;3.13;;;0.75;;
22026;SDS011;11177;50.966;10.070;2023-03-25T01:14:41;3.08;;;0.70;;
22026;SDS011;11177;50.966;10.070;2023-03-25T01:17:08;2.67;;;0.63;;
22026;SDS011;11177;50.966;10.070;2023-03-25T01:19:35;2.55;;;0.80;;
22026;SDS011;11177;50.966;10.070;2023-03-25T01:22:02;1.73;;;0.47;;
22026;SDS011;11177;50.966;10.070;2023-03-25T01:24:29;2.50;;;0.60;;
22026;SDS011;11177;50.966;10.070;2023-03-25T01:26:56;2.88;;;0.70;;
22026;SDS011;11177;50.966;10.070;2023-03-25T01:29:23;1.90;;;0.63;;
22026;SDS011;11177;50.966;10.070;2023-03-25T01:31:50;1.83;;;0.60;;
22026;SDS011;11177;50.966;10.070;2023-03-25T01:34:19;0.95;;;0.40;;
22026;SDS011;11177;50.966;10.070;2023-03-25T01:36:46;0.75;;;0.30;;
22026;SDS011;11177;50.966;10.070;2023-03-25T01:39:14;1.50;;;0.38;;
22026;SDS011;11177;50.966;10.070;2023-03-25T01:41:42;0.95;;;0.60;;
22026;SDS011;11177;50.966;10.070;2023-03-25T01:46:46;1.52;;;0.50;;
22026;SDS011;11177;50.966;10.070;2023-03-25T01:49:19;0.80;;;0.40;;
22026;SDS011;11177;50.966;10.070;2023-03-25T01:52:00;1.03;;;0.33;;
22026;SDS011;11177;50.966;10.070;2023-03-25T01:54:29;1.13;;;0.40;;
22026;SDS011;11177;50.966;10.070;2023-03-25T01:56:56;1.90;;;0.40;;
22026;SDS011;11177;50.966;10.070;2023-03-25T01:59:24;1.60;;;0.47;;
22026;SDS011;11177;50.966;10.070;2023-03-25T02:01:53;0.77;;;0.20;;
22026;SDS011;11177;50.966;10.070;2023-03-25T02:04:44;0.95;;;0.20;;
22026;SDS011;11177;50.966;10.070;2023-03-25T02:07:17;0.95;;;0.30;;
22026;SDS011;11177;50.966;10.070;2023-03-25T02:09:45;0.40;;;0.10;;
22026;SDS011;11177;50.966;10.070;2023-03-25T02:12:12;1.17;;;0.40;;
22026;SDS011;11177;50.966;10.070;2023-03-25T02:14:40;2.00;;;0.35;;
22026;SDS011;11177;50.966;10.070;2023-03-25T02:23:47;2.17;;;0.60;;
22026;SDS011;11177;50.966;10.070;2023-03-25T02:27:03;1.40;;;0.50;;
22026;SDS011;11177;50.966;10.070;2023-03-25T02:39:15;1.25;;;0.30;;
22026;SDS011;11177;50.966;10.070;2023-03-25T02:42:23;1.80;;;0.43;;
22026;SDS011;11177;50.966;10.070;2023-03-25T02:48:17;0.60;;;0.40;;
22026;SDS011;11177;50.966;10.070;2023-03-25T02:50:54;2.45;;;0.40;;
22026;SDS011;11177;50.966;10.070;2023-03-25T02:53:25;0.93;;;0.30;;
22026;SDS011;11177;50.966;10.070;2023-03-25T02:55:56;1.48;;;0.40;;
22026;SDS011;11177;50.966;10.070;2023-03-25T02:58:26;0.85;;;0.47;;
22026;SDS011;11177;50.966;10.070;2023-03-25T03:00:55;2.70;;;0.38;;
22026;SDS011;11177;50.966;10.070;2023-03-25T03:03:26;1.55;;;0.28;;
22026;SDS011;11177;50.966;10.070;2023-03-25T03:05:58;1.23;;;0.30;;
22026;SDS011;11177;50.966;10.070;2023-03-25T03:17:43;3.15;;;0.52;;
22026;SDS011;11177;50.966;10.070;2023-03-25T03:23:29;1.80;;;0.70;;
22026;SDS011;11177;50.966;10.070;2023-03-25T03:26:37;1.08;;;0.47;;
22026;SDS011;11177;50.966;10.070;2023-03-25T03:29:06;1.92;;;0.73;;
22026;SDS011;11177;50.966;10.070;2023-03-25T03:34:36;3.08;;;0.70;;
22026;SDS011;11177;50.966;10.070;2023-03-25T03:37:10;3.15;;;0.60;;
22026;SDS011;11177;50.966;10.070;2023-03-25T03:39:40;2.13;;;0.70;;
22026;SDS011;11177;50.966;10.070;2023-03-25T03:42:09;2.58;;;0.85;;
22026;SDS011;11177;50.966;10.070;2023-03-25T03:44:43;3.75;;;0.60;;
22026;SDS011;11177;50.966;10.070;2023-03-25T03:47:17;2.53;;;0.73;;
22026;SDS011;11177;50.966;10.070;2023-03-25T03:49:54;2.13;;;0.55;;
22026;SDS011;11177;50.966;10.070;2023-03-25T03:52:26;2.30;;;0.63;;
22026;SDS011;11177;50.966;10.070;2023-03-25T03:55:23;2.33;;;0.80;;
22026;SDS011;11177;50.966;10.070;2023-03-25T03:58:01;5.55;;;0.95;;
22026;SDS011;11177;50.966;10.070;2023-03-25T04:00:37;3.70;;;1.00;;
22026;SDS011;11177;50.966;10.070;2023-03-25T04:03:13;3.40;;;1.05;;
22026;SDS011;11177;50.966;10.070;2023-03-25T04:05:51;3.10;;;0.88;;
22026;SDS011;11177;50.966;10.070;2023-03-25T04:11:19;2.08;;;0.60;;
22026;SDS011;11177;50.966;10.070;2023-03-25T04:13:48;3.67;;;1.00;;
22026;SDS011;11177;50.966;10.070;2023-03-25T04:16:17;0.68;;;0.45;;
22026;SDS011;11177;50.966;10.070;2023-03-25T04:18:44;3.25;;;0.68;;
22026;SDS011;11177;50.966;10.070;2023-03-25T04:21:13;1.48;;;0.68;;
22026;SDS011;11177;50.966;10.070;2023-03-25T04:23:40;4.18;;;0.70;;
22026;SDS011;11177;50.966;10.070;2023-03-25T04:26:07;2.65;;;0.30;;
22026;SDS011;11177;50.966;10.070;2023-03-25T04:28:34;3.53;;;0.70;;
22026;SDS011;11177;50.966;10.070;2023-03-25T04:31:02;1.90;;;0.50;;
22026;SDS011;11177;50.966;10.070;2023-03-25T04:33:31;5.38;;;0.70;;
22026;SDS011;11177;50.966;10.070;2023-03-25T04:35:58;6.45;;;0.80;;
22026;SDS011;11177;50.966;10.070;2023-03-25T04:38:27;4.63;;;0.70;;
22026;SDS011;11177;50.966;10.070;2023-03-25T04:40:55;2.60;;;0.70;;
22026;SDS011;11177;50.966;10.070;2023-03-25T04:43:22;4.00;;;0.68;;
22026;SDS011;11177;50.966;10.070;2023-03-25T04:45:48;3.33;;;0.85;;
22026;SDS011;11177;50.966;10.070;2023-03-25T04:48:28;3.28;;;0.63;;
22026;SDS011;11177;50.966;10.070;2023-03-25T04:50:56;2.15;;;0.63;;
22026;SDS011;11177;50.966;10.070;2023-03-25T04:53:24;1.60;;;0.60;;
22026;SDS011;11177;50.966;10.070;2023-03-25T04:55:52;1.10;;;0.77;;
22026;SDS011;11177;50.966;10.070;2023-03-25T04:58:19;3.60;;;0.77;;
22026;SDS011;11177;50.966;10.070;2023-03-25T05:00:47;2.45;;;0.60;;
22026;SDS011;11177;50.966;10.070;2023-03-25T05:03:16;1.35;;;0.40;;
22026;SDS011;11177;50.966;10.070;2023-03-25T05:05:43;2.55;;;0.65;;
22026;SDS011;11177;50.966;10.070;2023-03-25T05:08:10;0.68;;;0.38;;
22026;SDS011;11177;50.966;10.070;2023-03-25T05:10:36;0.95;;;0.50;;
22026;SDS011;11177;50.966;10.070;2023-03-25T05:13:05;1.40;;;0.47;;
22026;SDS011;11177;50.966;10.070;2023-03-25T05:15:33;3.75;;;0.60;;
22026;SDS011;11177;50.966;10.070;2023-03-25T05:18:08;0.98;;;0.40;;
22026;SDS011;11177;50.966;10.070;2023-03-25T05:20:36;0.60;;;0.50;;
22026;SDS011;11177;50.966;10.070;2023-03-25T05:23:05;1.45;;;0.40;;
22026;SDS011;11177;50.966;10.070;2023-03-25T05:25:37;0.30;;;0.30;;
22026;SDS011;11177;50.966;10.070;2023-03-25T05:28:06;0.70;;;0.55;;
22026;SDS011;11177;50.966;10.070;2023-03-25T05:30:35;1.23;;;0.35;;
22026;SDS011;11177;50.966;10.070;2023-03-25T05:33:05;0.95;;;0.50;;
22026;SDS011;11177;50.966;10.070;2023-03-25T05:35:31;1.55;;;0.65;;
22026;SDS011;11177;50.966;10.070;2023-03-25T05:37:58;1.17;;;0.57;;
22026;SDS011;11177;50.966;10.070;2023-03-25T05:40:25;0.80;;;0.47;;
22026;SDS011;11177;50.966;10.070;2023-03-25T05:42:52;2.38;;;0.52;;
22026;SDS011;11177;50.966;10.070;2023-03-25T05:45:21;1.10;;;0.60;;
22026;SDS011;11177;50.966;10.070;2023-03-25T05:47:49;3.20;;;0.60;;
22026;SDS011;11177;50.966;10.070;2023-03-25T05:50:16;1.15;;;0.60;;
22026;SDS011;11177;50.966;10.070;2023-03-25T05:52:43;2.90;;;0.77;;
22026;SDS011;11177;50.966;10.070;2023-03-25T05:55:15;2.00;;;0.82;;
22026;SDS011;11177;50.966;10.070;2023-03-25T05:57:46;2.90;;;1.10;;
22026;SDS011;11177;50.966;10.070;2023-03-25T06:00:13;3.38;;;1.20;;
22026;SDS011;11177;50.966;10.070;2023-03-25T06:02:41;2.67;;;1.10;;
22026;SDS011;11177;50.966;10.070;2023-03-25T06:05:09;1.85;;;0.90;;
22026;SDS011;11177;50.966;10.070;2023-03-25T06:07:40;2.20;;;1.00;;
22026;SDS011;11177;50.966;10.070;2023-03-25T06:10:11;2.40;;;0.80;;
22026;SDS011;11177;50.966;10.070;2023-03-25T06:12:43;3.05;;;1.10;;
22026;SDS011;11177;50.966;10.070;2023-03-25T06:15:11;4.10;;;1.30;;
22026;SDS011;11177;50.966;10.070;2023-03-25T06:17:39;2.30;;;1.02;;
22026;SDS011;11177;50.966;10.070;2023-03-25T06:20:08;1.10;;;0.93;;
22026;SDS011;11177;50.966;10.070;2023-03-25T06:22:39;2.17;;;0.80;;
22026;SDS011;11177;50.966;10.070;2023-03-25T06:25:12;2.38;;;1.00;;
22026;SDS011;11177;50.966;10.070;2023-03-25T06:27:43;2.50;;;1.02;;
22026;SDS011;11177;50.966;10.070;2023-03-25T06:30:15;2.03;;;1.00;;
22026;SDS011;11177;50.966;10.070;2023-03-25T06:32:43;2.65;;;0.90;;
22026;SDS011;11177;50.966;10.070;2023-03-25T06:35:10;3.72;;;1.25;;
22026;SDS011;11177;50.966;10.070;2023-03-25T06:37:37;2.90;;;1.20;;
22026;SDS011;11177;50.966;10.070;2023-03-25T06:40:05;2.60;;;1.05;;
22026;SDS011;11177;50.966;10.070;2023-03-25T06:42:32;4.53;;;1.10;;
22026;SDS011;11177;50.966;10.070;2023-03-25T06:44:59;3.00;;;1.08;;
22026;SDS011;11177;50.966;10.070;2023-03-25T06:47:28;2.33;;;0.80;;
22026;SDS011;11177;50.966;10.070;2023-03-25T06:49:55;3.30;;;1.10;;
22026;SDS011;11177;50.966;10.070;2023-03-25T06:52:22;1.95;;;0.88;;
22026;SDS011;11177;50.966;10.070;2023-03-25T06:54:49;3.28;;;0.73;;
22026;SDS011;11177;50.966;10.070;2023-03-25T06:57:15;2.85;;;0.90;;
22026;SDS011;11177;50.966;10.070;2023-03-25T06:59:42;2.67;;;0.70;;
22026;SDS011;11177;50.966;10.070;2023-03-25T07:02:12;2.20;;;0.70;;
22026;SDS011;11177;50.966;10.070;2023-03-25T07:04:40;2.78;;;0.73;;
22026;SDS011;11177;50.966;10.070;2023-03-25T07:07:07;3.25;;;0.77;;
22026;SDS011;11177;50.966;10.070;2023-03-25T07:09:34;1.60;;;0.70;;
22026;SDS011;11177;50.966;10.070;2023-03-25T07:12:01;1.63;;;0.75;;
22026;SDS011;11177;50.966;10.070;2023-03-25T07:14:28;1.17;;;0.55;;
22026;SDS011;11177;50.966;10.070;2023-03-25T07:16:55;2.75;;;0.60;;
22026;SDS011;11177;50.966;10.070;2023-03-25T07:19:22;1.15;;;0.50;;
22026;SDS011;11177;50.966;10.070;2023-03-25T07:21:49;1.75;;;0.57;;
22026;SDS011;11177;50.966;10.070;2023-03-25T07:24:16;1.08;;;0.60;;
22026;SDS011;11177;50.966;10.070;2023-03-25T07:26:43;4.43;;;0.90;;
22026;SDS011;11177;50.966;10.070;2023-03-25T07:29:09;2.45;;;0.80;;
22026;SDS011;11177;50.966;10.070;2023-03-25T07:31:36;2.47;;;0.52;;
22026;SDS011;11177;50.966;10.070;2023-03-25T07:34:05;1.10;;;0.40;;
22026;SDS011;11177;50.966;10.070;2023-03-25T07:36:34;2.47;;;0.70;;
22026;SDS011;11177;50.966;10.070;2023-03-25T07:39:01;2.08;;;0.73;;
22026;SDS011;11177;50.966;10.070;2023-03-25T07:41:28;2.53;;;0.75;;
22026;SDS011;11177;50.966;10.070;2023-03-25T07:43:55;2.38;;;0.60;;
22026;SDS011;11177;50.966;10.070;2023-03-25T07:46:22;2.40;;;0.50;;
22026;SDS011;11177;50.966;10.070;2023-03-25T07:48:49;3.03;;;0.50;;
22026;SDS011;11177;50.966;10.070;2023-03-25T07:51:16;3.80;;;0.80;;
22026;SDS011;11177;50.966;10.070;2023-03-25T07:53:43;2.20;;;0.70;;
22026;SDS011;11177;50.966;10.070;2023-03-25T07:56:12;2.53;;;0.60;;
22026;SDS011;11177;50.966;10.070;2023-03-25T07:58:40;1.95;;;0.60;;
22026;SDS011;11177;50.966;10.070;2023-03-25T08:01:07;1.30;;;0.70;;
22026;SDS011;11177;50.966;10.070;2023-03-25T08:03:35;1.40;;;0.45;;
22026;SDS011;11177;50.966;10.070;2023-03-25T08:06:06;1.13;;;0.60;;
22026;SDS011;11177;50.966;10.070;2023-03-25T08:08:33;2.88;;;0.60;;
22026;SDS011;11177;50.966;10.070;2023-03-25T08:11:01;1.13;;;0.50;;
22026;SDS011;11177;50.966;10.070;2023-03-25T08:13:29;4.03;;;0.90;;
22026;SDS011;11177;50.966;10.070;2023-03-25T08:15:56;2.00;;;0.70;;
22026;SDS011;11177;50.966;10.070;2023-03-25T08:18:24;1.65;;;0.70;;
22026;SDS011;11177;50.966;10.070;2023-03-25T08:20:51;1.50;;;0.50;;
22026;SDS011;11177;50.966;10.070;2023-03-25T08:23:19;1.73;;;0.70;;
22026;SDS011;11177;50.966;10.070;2023-03-25T08:25:48;2.08;;;0.88;;
22026;SDS011;11177;50.966;10.070;2023-03-25T08:28:17;3.70;;;0.77;;
22026;SDS011;11177;50.966;10.070;2023-03-25T08:30:49;1.60;;;0.57;;
22026;SDS011;11177;50.966;10.070;2023-03-25T08:33:21;1.55;;;0.70;;
22026;SDS011;11177;50.966;10.070;2023-03-25T08:35:55;2.20;;;0.60;;
22026;SDS011;11177;50.966;10.070;2023-03-25T08:38:23;1.17;;;0.68;;
22026;SDS011;11177;50.966;10.070;2023-03-25T08:40:51;3.40;;;0.93;;
22026;SDS011;11177;50.966;10.070;2023-03-25T08:43:18;1.70;;;0.63;;
22026;SDS011;11177;50.966;10.070;2023-03-25T08:45:46;2.55;;;0.50;;
22026;SDS011;11177;50.966;10.070;2023-03-25T08:48:15;2.13;;;0.80;;
22026;SDS011;11177;50.966;10.070;2023-03-25T08:50:42;4.57;;;1.02;;
22026;SDS011;11177;50.966;10.070;2023-03-25T08:53:09;3.28;;;0.60;;
22026;SDS011;11177;50.966;10.070;2023-03-25T08:55:37;1.83;;;0.80;;
22026;SDS011;11177;50.966;10.070;2023-03-25T08:58:05;1.73;;;0.60;;
22026;SDS011;11177;50.966;10.070;2023-03-25T09:03:52;3.28;;;0.60;;
22026;SDS011;11177;50.966;10.070;2023-03-25T09:06:21;2.28;;;1.00;;
22026;SDS011;11177;50.966;10.070;2023-03-25T09:08:48;3.13;;;1.33;;
22026;SDS011;11177;50.966;10.070;2023-03-25T09:11:15;3.05;;;0.80;;
22026;SDS011;11177;50.966;10.070;2023-03-25T09:13:57;2.65;;;0.70;;
22026;SDS011;11177;50.966;10.070;2023-03-25T09:16:24;2.70;;;0.65;;
22026;SDS011;11177;50.966;10.070;2023-03-25T09:18:52;0.70;;;0.52;;
22026;SDS011;11177;50.966;10.070;2023-03-25T09:21:18;1.98;;;0.77;;
22026;SDS011;11177;50.966;10.070;2023-03-25T09:23:45;3.20;;;0.77;;
22026;SDS011;11177;50.966;10.070;2023-03-25T09:26:12;3.03;;;0.80;;
22026;SDS011;11177;50.966;10.070;2023-03-25T09:28:40;6.28;;;0.93;;
22026;SDS011;11177;50.966;10.070;2023-03-25T09:31:07;3.78;;;1.25;;
22026;SDS011;11177;50.966;10.070;2023-03-25T09:33:35;5.10;;;1.05;;
22026;SDS011;11177;50.966;10.070;2023-03-25T09:36:02;4.32;;;1.20;;
22026;SDS011;11177;50.966;10.070;2023-03-25T09:38:30;5.47;;;1.40;;
22026;SDS011;11177;50.966;10.070;2023-03-25T09:41:03;4.50;;;1.38;;
22026;SDS011;11177;50.966;10.070;2023-03-25T09:46:44;2.70;;;1.23;;
22026;SDS011;11177;50.966;10.070;2023-03-25T09:49:18;2.92;;;0.98;;
22026;SDS011;11177;50.966;10.070;2023-03-25T09:51:47;2.53;;;0.98;;
22026;SDS011;11177;50.966;10.070;2023-03-25T09:57:04;2.67;;;0.93;;
22026;SDS011;11177;50.966;10.070;2023-03-25T09:59:43;2.45;;;0.80;;
22026;SDS011;11177;50.966;10.070;2023-03-25T10:02:22;2.90;;;0.98;;
22026;SDS011;11177;50.966;10.070;2023-03-25T10:04:58;5.57;;;1.33;;
22026;SDS011;11177;50.966;10.070;2023-03-25T10:11:32;5.13;;;1.10;;
22026;SDS011;11177;50.966;10.070;2023-03-25T10:14:09;4.78;;;1.05;;
22026;SDS011;11177;50.966;10.070;2023-03-25T10:16:50;2.65;;;1.02;;
22026;SDS011;11177;50.966;10.070;2023-03-25T10:19:35;6.35;;;1.20;;
22026;SDS011;11177;50.966;10.070;2023-03-25T10:22:22;3.47;;;1.08;;
22026;SDS011;11177;50.966;10.070;2023-03-25T10:25:00;4.53;;;1.15;;
22026;SDS011;11177;50.966;10.070;2023-03-25T10:27:39;4.17;;;1.03;;
22026;SDS011;11177;50.966;10.070;2023-03-25T10:30:29;6.53;;;1.20;;
22026;SDS011;11177;50.966;10.070;2023-03-25T10:33:01;2.88;;;0.90;;
22026;SDS011;11177;50.966;10.070;2023-03-25T10:35:35;6.57;;;0.95;;
22026;SDS011;11177;50.966;10.070;2023-03-25T10:38:18;2.13;;;0.73;;
22026;SDS011;11177;50.966;10.070;2023-03-25T10:40:47;4.60;;;0.75;;
22026;SDS011;11177;50.966;10.070;2023-03-25T10:43:26;3.97;;;1.10;;
22026;SDS011;11177;50.966;10.070;2023-03-25T10:46:12;0.93;;;0.55;;
22026;SDS011;11177;50.966;10.070;2023-03-25T10:48:45;1.23;;;0.45;;
22026;SDS011;11177;50.966;10.070;2023-03-25T10:51:14;1.05;;;0.20;;
22026;SDS011;11177;50.966;10.070;2023-03-25T10:54:02;2.63;;;0.28;;
22026;SDS011;11177;50.966;10.070;2023-03-25T10:56:33;2.55;;;0.47;;
22026;SDS011;11177;50.966;10.070;2023-03-25T10:59:26;0.43;;;0.38;;
22026;SDS011;11177;50.966;10.070;2023-03-25T11:02:12;2.50;;;0.80;;
22026;SDS011;11177;50.966;10.070;2023-03-25T11:04:44;0.80;;;0.40;;
22026;SDS011;11177;50.966;10.070;2023-03-25T11:07:19;0.47;;;0.40;;
22026;SDS011;11177;50.966;10.070;2023-03-25T11:09:50;0.45;;;0.40;;
22026;SDS011;11177;50.966;10.070;2023-03-25T11:12:18;1.38;;;0.65;;
22026;SDS011;11177;50.966;10.070;2023-03-25T11:15:02;1.90;;;0.45;;
22026;SDS011;11177;50.966;10.070;2023-03-25T11:17:31;2.15;;;0.73;;
22026;SDS011;11177;50.966;10.070;2023-03-25T11:20:01;0.68;;;0.57;;
22026;SDS011;11177;50.966;10.070;2023-03-25T11:22:37;0.73;;;0.32;;
22026;SDS011;11177;50.966;10.070;2023-03-25T11:25:22;1.00;;;0.20;;
22026;SDS011;11177;50.966;10.070;2023-03-25T11:27:52;1.35;;;0.30;;
22026;SDS011;11177;50.966;10.070;2023-03-25T11:30:23;2.35;;;0.50;;
22026;SDS011;11177;50.966;10.070;2023-03-25T11:33:05;1.33;;;0.45;;
22026;SDS011;11177;50.966;10.070;2023-03-25T11:35:39;2.67;;;0.50;;
22026;SDS011;11177;50.966;10.070;2023-03-25T11:38:14;3.30;;;0.60;;
22026;SDS011;11177;50.966;10.070;2023-03-25T11:40:48;6.18;;;0.60;;
22026;SDS011;11177;50.966;10.070;2023-03-25T11:43:19;3.55;;;0.57;;
22026;SDS011;11177;50.966;10.070;2023-03-25T11:45:47;3.72;;;0.70;;
22026;SDS011;11177;50.966;10.070;2023-03-25T11:48:20;1.63;;;0.70;;
22026;SDS011;11177;50.966;10.070;2023-03-25T11:50:55;2.83;;;0.98;;
22026;SDS011;11177;50.966;10.070;2023-03-25T11:53:31;3.08;;;0.60;;
22026;SDS011;11177;50.966;10.070;2023-03-25T11:56:03;2.88;;;0.57;;
22026;SDS011;11177;50.966;10.070;2023-03-25T11:58:33;3.72;;;0.73;;
22026;SDS011;11177;50.966;10.070;2023-03-25T12:01:03;2.17;;;0.70;;
22026;SDS011;11177;50.966;10.070;2023-03-25T12:03:32;2.53;;;0.68;;
22026;SDS011;11177;50.966;10.070;2023-03-25T12:06:03;2.30;;;0.70;;
22026;SDS011;11177;50.966;10.070;2023-03-25T12:08:42;2.38;;;0.75;;
22026;SDS011;11177;50.966;10.070;2023-03-25T12:11:31;1.70;;;0.45;;
22026;SDS011;11177;50.966;10.070;2023-03-25T12:14:20;2.25;;;0.40;;
22026;SDS011;11177;50.966;10.070;2023-03-25T12:17:15;0.45;;;0.40;;
22026;SDS011;11177;50.966;10.070;2023-03-25T12:22:46;2.28;;;0.52;;
22026;SDS011;11177;50.966;10.070;2023-03-25T12:25:22;1.20;;;0.40;;
22026;SDS011;11177;50.966;10.070;2023-03-25T12:29:00;2.58;;;0.57;;
22026;SDS011;11177;50.966;10.070;2023-03-25T12:31:21;2.72;;;0.75;;
22026;SDS011;11177;50.966;10.070;2023-03-25T12:34:16;2.03;;;0.93;;
22026;SDS011;11177;50.966;10.070;2023-03-25T12:45:45;1.63;;;0.70;;
22026;SDS011;11177;50.966;10.070;2023-03-25T12:48:37;1.10;;;0.60;;
22026;SDS011;11177;50.966;10.070;2023-03-25T12:51:33;2.85;;;0.60;;
22026;SDS011;11177;50.966;10.070;2023-03-25T12:57:02;3.65;;;0.80;;
22026;SDS011;11177;50.966;10.070;2023-03-25T13:06:00;1.90;;;0.70;;
22026;SDS011;11177;50.966;10.070;2023-03-25T13:12:06;8.73;;;1.00;;
22026;SDS011;11177;50.966;10.070;2023-03-25T13:14:44;3.28;;;0.50;;
22026;SDS011;11177;50.966;10.070;2023-03-25T13:17:27;5.45;;;0.73;;
22026;SDS011;11177;50.966;10.070;2023-03-25T13:20:01;4.20;;;0.90;;
22026;SDS011;11177;50.966;10.070;2023-03-25T13:22:33;3.33;;;0.90;;
22026;SDS011;11177;50.966;10.070;2023-03-25T13:25:09;2.20;;;0.70;;
22026;SDS011;11177;50.966;10.070;2023-03-25T13:27:44;3.50;;;0.70;;
22026;SDS011;11177;50.966;10.070;2023-03-25T13:30:23;4.63;;;0.93;;
22026;SDS011;11177;50.966;10.070;2023-03-25T13:33:13;1.52;;;0.50;;
22026;SDS011;11177;50.966;10.070;2023-03-25T13:38:32;3.00;;;0.80;;
22026;SDS011;11177;50.966;10.070;2023-03-25T13:41:06;2.80;;;0.70;;
22026;SDS011;11177;50.966;10.070;2023-03-25T13:43:51;2.45;;;0.70;;
22026;SDS011;11177;50.966;10.070;2023-03-25T13:46:40;4.35;;;0.70;;
22026;SDS011;11177;50.966;10.070;2023-03-25T13:51:44;1.63;;;0.60;;
22026;SDS011;11177;50.966;10.070;2023-03-25T13:54:16;4.30;;;0.70;;
22026;SDS011;11177;50.966;10.070;2023-03-25T13:56:58;4.28;;;0.68;;
22026;SDS011;11177;50.966;10.070;2023-03-25T14:02:40;1.88;;;0.52;;
22026;SDS011;11177;50.966;10.070;2023-03-25T14:05:26;1.35;;;0.47;;
22026;SDS011;11177;50.966;10.070;2023-03-25T14:13:41;2.45;;;0.50;;
22026;SDS011;11177;50.966;10.070;2023-03-25T14:16:16;4.45;;;0.77;;
22026;SDS011;11177;50.966;10.070;2023-03-25T14:18:46;2.78;;;1.00;;
22026;SDS011;11177;50.966;10.070;2023-03-25T14:27:00;2.17;;;0.65;;
22026;SDS011;11177;50.966;10.070;2023-03-25T14:32:32;2.43;;;1.10;;
22026;SDS011;11177;50.966;10.070;2023-03-25T14:35:43;6.22;;;0.70;;
22026;SDS011;11177;50.966;10.070;2023-03-25T14:41:12;2.15;;;0.50;;
22026;SDS011;11177;50.966;10.070;2023-03-25T14:43:44;3.03;;;1.00;;
22026;SDS011;11177;50.966;10.070;2023-03-25T14:46:13;4.50;;;1.23;;
22026;SDS011;11177;50.966;10.070;2023-03-25T14:48:50;5.97;;;1.00;;
22026;SDS011;11177;50.966;10.070;2023-03-25T14:51:55;3.30;;;0.80;;
22026;SDS011;11177;50.966;10.070;2023-03-25T14:54:25;2.67;;;0.50;;
22026;SDS011;11177;50.966;10.070;2023-03-25T14:57:09;3.28;;;0.85;;
22026;SDS011;11177;50.966;10.070;2023-03-25T14:59:42;1.43;;;0.67;;
22026;SDS011;11177;50.966;10.070;2023-03-25T15:02:25;2.47;;;0.60;;
22026;SDS011;11177;50.966;10.070;2023-03-25T15:08:09;3.65;;;0.77;;
22026;SDS011;11177;50.966;10.070;2023-03-25T15:10:48;2.25;;;0.68;;
22026;SDS011;11177;50.966;10.070;2023-03-25T15:13:20;2.72;;;0.60;;
22026;SDS011;11177;50.966;10.070;2023-03-25T15:15:52;3.35;;;0.30;;
22026;SDS011;11177;50.966;10.070;2023-03-25T15:21:23;2.83;;;0.47;;
22026;SDS011;11177;50.966;10.070;2023-03-25T15:24:05;2.75;;;0.60;;
22026;SDS011;11177;50.966;10.070;2023-03-25T15:26:40;2.70;;;0.77;;
22026;SDS011;11177;50.966;10.070;2023-03-25T15:32:56;1.52;;;0.50;;
22026;SDS011;11177;50.966;10.070;2023-03-25T15:44:12;2.03;;;0.50;;
22026;SDS011;11177;50.966;10.070;2023-03-25T15:48:20;2.05;;;0.50;;
22026;SDS011;11177;50.966;10.070;2023-03-25T15:53:32;2.10;;;0.60;;
22026;SDS011;11177;50.966;10.070;2023-03-25T15:56:26;2.30;;;0.63;;
22026;SDS011;11177;50.966;10.070;2023-03-25T15:58:58;3.42;;;1.40;;
22026;SDS011;11177;50.966;10.070;2023-03-25T16:01:46;2.72;;;1.00;;
22026;SDS011;11177;50.966;10.070;2023-03-25T16:04:38;1.67;;;0.70;;
22026;SDS011;11177;50.966;10.070;2023-03-25T16:07:11;2.88;;;1.00;;
22026;SDS011;11177;50.966;10.070;2023-03-25T16:09:43;2.92;;;0.80;;
22026;SDS011;11177;50.966;10.070;2023-03-25T16:12:17;2.80;;;1.10;;
22026;SDS011;11177;50.966;10.070;2023-03-25T16:14:46;4.80;;;1.50;;
22026;SDS011;11177;50.966;10.070;2023-03-25T16:17:15;3.60;;;1.25;;
22026;SDS011;11177;50.966;10.070;2023-03-25T16:19:54;5.45;;;1.83;;
22026;SDS011;11177;50.966;10.070;2023-03-25T16:22:26;6.50;;;2.13;;
22026;SDS011;11177;50.966;10.070;2023-03-25T16:24:55;5.38;;;1.80;;
22026;SDS011;11177;50.966;10.070;2023-03-25T16:27:44;2.90;;;1.52;;
22026;SDS011;11177;50.966;10.070;2023-03-25T16:30:27;4.55;;;1.60;;
22026;SDS011;11177;50.966;10.070;2023-03-25T16:35:43;4.07;;;0.88;;
22026;SDS011;11177;50.966;10.070;2023-03-25T16:38:13;5.30;;;0.80;;
22026;SDS011;11177;50.966;10.070;2023-03-25T16:40:43;4.70;;;0.73;;
22026;SDS011;11177;50.966;10.070;2023-03-25T16:43:20;3.83;;;0.60;;
22026;SDS011;11177;50.966;10.070;2023-03-25T16:45:49;2.60;;;0.63;;
22026;SDS011;11177;50.966;10.070;2023-03-25T16:48:21;3.80;;;0.70;;
22026;SDS011;11177;50.966;10.070;2023-03-25T16:50:51;3.65;;;0.70;;
22026;SDS011;11177;50.966;10.070;2023-03-25T16:53:19;1.05;;;0.40;;
22026;SDS011;11177;50.966;10.070;2023-03-25T16:55:48;4.78;;;0.80;;
22026;SDS011;11177;50.966;10.070;2023-03-25T16:58:20;3.50;;;0.50;;
22026;SDS011;11177;50.966;10.070;2023-03-25T17:03:39;2.13;;;0.70;;
22026;SDS011;11177;50.966;10.070;2023-03-25T17:06:26;1.70;;;0.50;;
22026;SDS011;11177;50.966;10.070;2023-03-25T17:09:01;5.00;;;1.20;;
22026;SDS011;11177;50.966;10.070;2023-03-25T17:11:30;3.90;;;0.85;;
22026;SDS011;11177;50.966;10.070;2023-03-25T17:14:04;2.53;;;1.00;;
22026;SDS011;11177;50.966;10.070;2023-03-25T17:16:34;2.85;;;1.30;;